createdAt,value
2022-08-20T00:01:06.996Z,101434.88
2022-08-20T00:03:41.306Z,101436.75
2022-08-20T00:06:22.783Z,101438.59
2022-08-20T00:08:50.953Z,101431.44
2022-08-20T00:11:23.999Z,101434.19
2022-08-20T00:13:56.349Z,101429.78
2022-08-20T00:16:28.359Z,101438.72
2022-08-20T00:18:55.601Z,101445.00
2022-08-20T00:21:23.251Z,101438.88
2022-08-20T00:23:54.121Z,101447.81
2022-08-20T00:26:21.752Z,101440.72
2022-08-20T00:28:48.986Z,101444.28
2022-08-20T00:31:20.078Z,101442.56
2022-08-20T00:33:47.756Z,101442.59
2022-08-20T00:36:17.558Z,101442.56
2022-08-20T00:38:47.183Z,101446.19
2022-08-20T00:41:26.836Z,101438.22
2022-08-20T00:44:12.286Z,101434.66
2022-08-20T00:46:41.031Z,101441.81
2022-08-20T00:49:13.072Z,101435.63
2022-08-20T00:52:15.721Z,101446.34
2022-08-20T00:54:55.044Z,101452.53
2022-08-20T00:57:51.209Z,101449.88
2022-08-20T01:00:32.757Z,101433.84
2022-08-20T01:03:00.715Z,101442.84
2022-08-20T01:05:29.637Z,101436.59
2022-08-20T01:07:58.373Z,101442.88
2022-08-20T01:10:32.236Z,101453.50
2022-08-20T01:13:03.791Z,101458.88
2022-08-20T01:15:31.969Z,101458.84
2022-08-20T01:18:01.081Z,101449.09
2022-08-20T01:20:34.100Z,101446.47
2022-08-20T01:23:48.857Z,101447.38
2022-08-20T01:26:28.910Z,101452.75
2022-08-20T01:29:02.067Z,101446.63
2022-08-20T01:31:36.989Z,101453.72
2022-08-20T01:34:10.821Z,101460.03
2022-08-20T01:36:46.520Z,101452.09
2022-08-20T01:39:19.272Z,101453.00
2022-08-20T01:42:02.684Z,101451.22
2022-08-20T01:44:31.018Z,101449.50
2022-08-20T01:47:07.846Z,101447.84
2022-08-20T01:49:36.300Z,101451.41
2022-08-20T01:52:08.504Z,101456.78
2022-08-20T01:54:36.102Z,101463.97
2022-08-20T01:57:12.053Z,101461.31
2022-08-20T01:59:40.810Z,101471.19
2022-08-20T02:02:10.519Z,101463.19
2022-08-20T02:04:38.302Z,101461.44
2022-08-20T02:07:08.317Z,101460.59
2022-08-20T02:09:39.430Z,101454.44
2022-08-20T02:12:09.849Z,101459.78
2022-08-20T02:14:43.397Z,101453.59
2022-08-20T02:17:12.236Z,101460.75
2022-08-20T02:19:50.528Z,101470.56
2022-08-20T02:22:44.251Z,101475.03
2022-08-20T02:25:21.188Z,101476.78
2022-08-20T02:27:53.656Z,101480.38
2022-08-20T02:30:29.327Z,101467.94
2022-08-20T02:32:58.332Z,101465.25
2022-08-20T02:35:26.899Z,101460.81
2022-08-20T02:37:54.673Z,101468.91
2022-08-20T02:40:27.048Z,101474.22
2022-08-20T02:43:02.428Z,101470.75
2022-08-20T02:45:37.169Z,101462.72
2022-08-20T02:48:05.608Z,101477.84
2022-08-20T02:50:33.171Z,101470.75
2022-08-20T02:53:00.159Z,101471.59
2022-08-20T02:55:28.376Z,101474.28
2022-08-20T02:58:00.578Z,101477.84
2022-08-20T03:00:32.266Z,101469.88
2022-08-20T03:03:10.897Z,101468.09
2022-08-20T03:05:41.347Z,101469.88
2022-08-20T03:08:10.615Z,101466.34
2022-08-20T03:10:40.207Z,101463.69
2022-08-20T03:13:12.357Z,101473.47
2022-08-20T03:15:47.854Z,101468.13
2022-08-20T03:18:16.645Z,101475.25
2022-08-20T03:20:45.992Z,101476.13
2022-08-20T03:23:14.913Z,101469.97
2022-08-20T03:25:42.204Z,101476.16
2022-08-20T03:28:10.464Z,101477.03
2022-08-20T03:30:38.038Z,101471.72
2022-08-20T03:33:05.418Z,101479.69
2022-08-20T03:35:34.849Z,101469.03
2022-08-20T03:38:06.071Z,101473.50
2022-08-20T03:40:35.268Z,101475.28
2022-08-20T03:43:02.377Z,101473.50
2022-08-20T03:45:30.102Z,101478.84
2022-08-20T03:47:58.426Z,101482.41
2022-08-20T03:50:29.268Z,101492.16
2022-08-20T03:52:57.846Z,101491.28
2022-08-20T03:55:26.441Z,101488.63
2022-08-20T03:57:58.623Z,101485.06
2022-08-20T04:00:47.321Z,101478.84
2022-08-20T04:03:15.239Z,101487.75
2022-08-20T04:05:43.821Z,101489.50
2022-08-20T04:08:24.348Z,101494.84
2022-08-20T04:10:51.848Z,101500.16
2022-08-20T04:13:22.745Z,101494.84
2022-08-20T04:15:55.197Z,101496.66
2022-08-20T04:18:25.752Z,101500.16
2022-08-20T04:20:53.943Z,101500.16
2022-08-20T04:23:22.729Z,101504.66
2022-08-20T04:25:49.834Z,101502.06
2022-08-20T04:28:28.637Z,101500.31
2022-08-20T04:30:58.766Z,101503.00
2022-08-20T04:33:35.117Z,101506.59
2022-08-20T04:36:06.073Z,101502.13
2022-08-20T04:38:48.516Z,101510.16
2022-08-20T04:41:24.176Z,101511.03
2022-08-20T04:43:54.167Z,101508.41
2022-08-20T04:46:25.692Z,101518.19
2022-08-20T04:48:53.915Z,101518.22
2022-08-20T04:51:23.165Z,101519.09
2022-08-20T04:53:53.790Z,101525.38
2022-08-20T04:56:24.343Z,101520.88
2022-08-20T04:58:54.364Z,101526.22
2022-08-20T05:01:23.739Z,101528.91
2022-08-20T05:03:51.333Z,101522.72
2022-08-20T05:06:18.772Z,101528.94
2022-08-20T05:08:46.134Z,101528.06
2022-08-20T05:11:32.903Z,101535.19
2022-08-20T05:14:02.039Z,101542.31
2022-08-20T05:16:29.178Z,101544.09
2022-08-20T05:18:56.165Z,101542.31
2022-08-20T05:21:23.131Z,101543.22
2022-08-20T05:23:50.195Z,101538.78
2022-08-20T05:26:20.211Z,101555.69
2022-08-20T05:28:57.670Z,101550.34
2022-08-20T05:31:31.475Z,101553.00
2022-08-20T05:34:09.839Z,101562.75
2022-08-20T05:36:50.042Z,101561.00
2022-08-20T05:39:20.400Z,101566.31
2022-08-20T05:41:49.522Z,101567.19
2022-08-20T05:44:17.846Z,101571.63
2022-08-20T05:46:46.925Z,101569.88
2022-08-20T05:49:20.138Z,101571.63
2022-08-20T05:51:49.013Z,101575.19
2022-08-20T05:54:16.130Z,101581.38
2022-08-20T05:56:43.351Z,101584.91
2022-08-20T05:59:12.586Z,101579.56
2022-08-20T06:01:41.407Z,101585.75
2022-08-20T06:04:24.952Z,101590.19
2022-08-20T06:06:58.217Z,101586.63
2022-08-20T06:09:31.981Z,101591.03
2022-08-20T06:12:07.789Z,101591.91
2022-08-20T06:14:35.459Z,101581.22
2022-08-20T06:17:10.212Z,101586.53
2022-08-20T06:19:44.322Z,101593.59
2022-08-20T06:22:20.521Z,101585.56
2022-08-20T06:24:54.125Z,101587.28
2022-08-20T06:27:21.458Z,101593.50
2022-08-20T06:29:49.636Z,101578.34
2022-08-20T06:32:17.401Z,101582.75
2022-08-20T06:34:50.494Z,101576.47
2022-08-20T06:37:31.067Z,101579.06
2022-08-20T06:40:08.382Z,101575.50
2022-08-20T06:42:35.635Z,101571.03
2022-08-20T06:45:05.772Z,101581.63
2022-08-20T06:47:33.704Z,101575.31
2022-08-20T06:50:00.684Z,101582.38
2022-08-20T06:52:47.131Z,101583.19
2022-08-20T06:55:16.246Z,101585.78
2022-08-20T06:57:43.660Z,101587.50
2022-08-20T07:00:20.006Z,101596.34
2022-08-20T07:02:48.130Z,101596.25
2022-08-20T07:05:16.365Z,101596.25
2022-08-20T07:07:49.659Z,101604.13
2022-08-20T07:10:18.849Z,101604.97
2022-08-20T07:12:46.971Z,101614.53
2022-08-20T07:15:15.179Z,101607.41
2022-08-20T07:17:42.566Z,101606.41
2022-08-20T07:20:14.067Z,101611.72
2022-08-20T07:22:42.292Z,101607.13
2022-08-20T07:25:14.390Z,101614.09
2022-08-20T07:27:43.577Z,101616.66
2022-08-20T07:30:56.420Z,101616.66
2022-08-20T07:33:29.807Z,101619.13
2022-08-20T07:35:59.187Z,101614.53
2022-08-20T07:38:29.388Z,101622.44
2022-08-20T07:41:04.753Z,101615.25
2022-08-20T07:43:33.509Z,101615.06
2022-08-20T07:46:07.500Z,101614.06
2022-08-20T07:48:40.087Z,101621.94
2022-08-20T07:51:10.774Z,101622.56
2022-08-20T07:53:40.460Z,101616.22
2022-08-20T07:56:17.692Z,101627.56
2022-08-20T07:58:50.437Z,101635.72
2022-08-20T08:01:21.042Z,101638.19
2022-08-20T08:03:49.260Z,101635.66
2022-08-20T08:06:29.618Z,101630.53
2022-08-20T08:09:11.730Z,101635.56
2022-08-20T08:11:47.207Z,101642.41
2022-08-20T08:14:24.814Z,101636.66
2022-08-20T08:16:55.213Z,101632.06
2022-08-20T08:19:22.478Z,101636.22
2022-08-20T08:21:49.790Z,101636.06
2022-08-20T08:24:21.704Z,101636.66
2022-08-20T08:26:50.813Z,101635.72
2022-08-20T08:29:18.180Z,101640.09
2022-08-20T08:31:45.514Z,101635.38
2022-08-20T08:34:13.119Z,101634.50
2022-08-20T08:36:40.568Z,101629.97
2022-08-20T08:39:07.852Z,101633.72
2022-08-20T08:41:49.438Z,101641.47
2022-08-20T08:44:39.936Z,101638.78
2022-08-20T08:47:29.365Z,101654.09
2022-08-20T08:49:57.770Z,101646.06
2022-08-20T08:52:36.678Z,101641.59
2022-08-20T08:55:10.712Z,101640.41
2022-08-20T08:57:37.714Z,101645.00
2022-08-20T09:00:24.029Z,101643.88
2022-08-20T09:03:24.588Z,101634.97
2022-08-20T09:05:57.104Z,101634.88
2022-08-20T09:08:32.717Z,101640.31
2022-08-20T09:11:08.308Z,101641.09
2022-08-20T09:13:36.047Z,101651.06
2022-08-20T09:16:03.770Z,101658.84
2022-08-20T09:18:30.785Z,101654.34
2022-08-20T09:20:57.771Z,101652.69
2022-08-20T09:23:24.743Z,101647.56
2022-08-20T09:25:51.724Z,101647.03
2022-08-20T09:28:18.735Z,101652.53
2022-08-20T09:30:45.940Z,101651.66
2022-08-20T09:33:14.071Z,101649.56
2022-08-20T09:35:41.222Z,101643.41
2022-08-20T09:38:08.310Z,101638.47
2022-08-20T09:40:35.473Z,101646.06
2022-08-20T09:43:05.284Z,101644.41
2022-08-20T09:45:32.402Z,101642.31
2022-08-20T09:47:59.579Z,101640.91
2022-08-20T09:50:30.335Z,101632.88
2022-08-20T09:53:00.296Z,101632.75
2022-08-20T09:55:36.542Z,101635.41
2022-08-20T09:58:26.500Z,101634.75
2022-08-20T10:00:53.559Z,101641.25
2022-08-20T10:03:20.629Z,101642.50
2022-08-20T10:05:47.702Z,101635.50
2022-08-20T10:08:14.918Z,101635.16
2022-08-20T10:10:42.222Z,101631.88
2022-08-20T10:13:09.179Z,101630.59
2022-08-20T10:15:40.506Z,101638.16
2022-08-20T10:18:09.087Z,101632.44
2022-08-20T10:20:40.052Z,101637.81
2022-08-20T10:23:07.222Z,101638.56
2022-08-20T10:25:34.304Z,101642.16
2022-08-20T10:28:01.631Z,101643.78
2022-08-20T10:30:28.719Z,101640.66
2022-08-20T10:32:55.775Z,101636.59
2022-08-20T10:35:23.211Z,101641.50
2022-08-20T10:37:50.448Z,101638.38
2022-08-20T10:40:17.746Z,101643.50
2022-08-20T10:42:45.182Z,101632.59
2022-08-20T10:45:16.135Z,101624.72
2022-08-20T10:47:43.708Z,101633.88
2022-08-20T10:50:16.410Z,101632.81
2022-08-20T10:52:43.915Z,101628.09
2022-08-20T10:55:11.412Z,101629.13
2022-08-20T10:57:41.105Z,101633.34
2022-08-20T11:00:10.324Z,101634.94
2022-08-20T11:02:37.955Z,101633.75
2022-08-20T11:05:07.219Z,101630.44
2022-08-20T11:07:50.823Z,101631.78
2022-08-20T11:10:26.945Z,101635.19
2022-08-20T11:12:54.595Z,101635.84
2022-08-20T11:15:21.976Z,101635.34
2022-08-20T11:17:48.973Z,101640.97
2022-08-20T11:20:19.951Z,101638.44
2022-08-20T11:22:47.798Z,101639.25
2022-08-20T11:25:14.901Z,101639.59
2022-08-20T11:27:47.307Z,101637.78
2022-08-20T11:30:26.608Z,101647.06
2022-08-20T11:32:54.043Z,101648.94
2022-08-20T11:35:48.254Z,101647.41
2022-08-20T11:38:11.256Z,101650.16
2022-08-20T11:40:38.494Z,101644.06
2022-08-20T11:43:20.842Z,101646.06
2022-08-20T11:45:56.209Z,101643.31
2022-08-20T11:48:23.514Z,101638.81
2022-08-20T11:50:50.949Z,101634.63
2022-08-20T11:53:18.077Z,101627.25
2022-08-20T11:55:45.234Z,101637.28
2022-08-20T11:58:12.773Z,101633.19
2022-08-20T12:00:40.177Z,101625.22
2022-08-20T12:03:10.228Z,101630.94
2022-08-20T12:05:41.651Z,101624.03
2022-08-20T12:08:09.253Z,101625.06
2022-08-20T12:10:38.252Z,101629.06
2022-08-20T12:13:07.044Z,101625.78
2022-08-20T12:15:36.784Z,101629.09
2022-08-20T12:18:08.673Z,101623.81
2022-08-20T12:20:37.292Z,101634.53
2022-08-20T12:23:04.694Z,101632.72
2022-08-20T12:25:31.711Z,101636.53
2022-08-20T12:27:59.570Z,101637.81
2022-08-20T12:30:26.801Z,101630.19
2022-08-20T12:32:53.832Z,101627.81
2022-08-20T12:35:21.211Z,101647.31
2022-08-20T12:37:48.536Z,101641.16
2022-08-20T12:40:32.698Z,101630.94
2022-08-20T12:43:02.579Z,101633.56
2022-08-20T12:45:30.795Z,101636.28
2022-08-20T12:48:17.010Z,101621.06
2022-08-20T12:50:46.263Z,101638.22
2022-08-20T12:53:13.368Z,101641.63
2022-08-20T12:55:40.439Z,101633.00
2022-08-20T12:58:10.166Z,101626.66
2022-08-20T13:00:44.318Z,101633.88
2022-08-20T13:03:17.394Z,101639.97
2022-08-20T13:05:44.396Z,101631.28
2022-08-20T13:08:12.563Z,101635.00
2022-08-20T13:10:46.696Z,101646.47
2022-08-20T13:13:20.171Z,101647.28
2022-08-20T13:15:49.895Z,101637.41
2022-08-20T13:18:17.001Z,101640.47
2022-08-20T13:20:44.215Z,101641.78
2022-08-20T13:23:11.223Z,101637.75
2022-08-20T13:25:38.337Z,101628.41
2022-08-20T13:28:05.692Z,101635.06
2022-08-20T13:30:36.742Z,101625.34
2022-08-20T13:33:03.885Z,101630.66
2022-08-20T13:35:31.368Z,101632.69
2022-08-20T13:37:59.541Z,101639.06
2022-08-20T13:40:26.680Z,101634.81
2022-08-20T13:42:53.886Z,101637.31
2022-08-20T13:45:21.043Z,101636.72
2022-08-20T13:47:54.404Z,101641.19
2022-08-20T13:50:24.466Z,101634.28
2022-08-20T13:52:51.707Z,101634.69
2022-08-20T13:55:21.844Z,101640.59
2022-08-20T13:57:50.373Z,101633.09
2022-08-20T14:00:31.869Z,101628.03
2022-08-20T14:03:01.675Z,101627.69
2022-08-20T14:05:30.510Z,101637.69
2022-08-20T14:08:11.850Z,101645.66
2022-08-20T14:10:42.744Z,101635.31
2022-08-20T14:13:14.623Z,101642.56
2022-08-20T14:15:43.406Z,101632.91
2022-08-20T14:18:10.459Z,101625.81
2022-08-20T14:20:38.732Z,101636.19
2022-08-20T14:23:06.335Z,101630.28
2022-08-20T14:25:33.890Z,101624.66
2022-08-20T14:28:18.518Z,101623.00
2022-08-20T14:30:46.784Z,101630.66
2022-08-20T14:33:19.860Z,101627.63
2022-08-20T14:35:46.832Z,101618.84
2022-08-20T14:38:13.907Z,101625.25
2022-08-20T14:40:40.886Z,101626.50
2022-08-20T14:43:07.891Z,101620.53
2022-08-20T14:45:34.948Z,101624.69
2022-08-20T14:48:01.995Z,101625.53
2022-08-20T14:50:34.766Z,101627.91
2022-08-20T14:53:02.868Z,101616.84
2022-08-20T14:55:37.674Z,101624.25
2022-08-20T14:58:14.031Z,101612.84
2022-08-20T15:00:42.847Z,101614.69
2022-08-20T15:03:10.116Z,101608.25
2022-08-20T15:05:39.290Z,101611.81
2022-08-20T15:08:07.127Z,101607.78
2022-08-20T15:10:34.579Z,101613.72
2022-08-20T15:13:02.595Z,101611.19
2022-08-20T15:15:29.759Z,101614.13
2022-08-20T15:18:00.352Z,101624.06
2022-08-20T15:20:31.889Z,101615.56
2022-08-20T15:22:59.678Z,101611.16
2022-08-20T15:25:36.691Z,101616.84
2022-08-20T15:28:08.797Z,101611.16
2022-08-20T15:30:39.200Z,101618.34
2022-08-20T15:33:07.165Z,101612.19
2022-08-20T15:35:34.814Z,101612.44
2022-08-20T15:38:02.002Z,101619.72
2022-08-20T15:40:32.376Z,101621.00
2022-08-20T15:43:01.551Z,101608.06
2022-08-20T15:45:29.457Z,101609.34
2022-08-20T15:48:17.255Z,101608.88
2022-08-20T15:51:11.811Z,101609.28
2022-08-20T15:54:05.276Z,101612.94
2022-08-20T15:57:03.160Z,101616.03
2022-08-20T15:59:54.668Z,101606.66
2022-08-20T16:02:51.413Z,101616.94
2022-08-20T16:05:58.034Z,101624.03
2022-08-20T16:08:51.033Z,101617.50
2022-08-20T16:11:29.846Z,101624.66
2022-08-20T16:14:15.922Z,101619.66
2022-08-20T16:17:01.787Z,101617.22
2022-08-20T16:19:44.402Z,101614.19
2022-08-20T16:22:16.067Z,101611.38
2022-08-20T16:24:43.121Z,101611.03
2022-08-20T16:27:40.020Z,101620.72
2022-08-20T16:30:13.396Z,101612.94
2022-08-20T16:32:45.223Z,101610.50
2022-08-20T16:35:30.631Z,101608.88
2022-08-20T16:38:08.191Z,101609.75
2022-08-20T16:40:54.081Z,101613.81
2022-08-20T16:43:38.987Z,101606.03
2022-08-20T16:46:18.682Z,101615.41
2022-08-20T16:48:59.082Z,101608.06
2022-08-20T16:51:53.123Z,101620.88
2022-08-20T16:54:28.520Z,101607.16
2022-08-20T16:57:03.517Z,101610.13
2022-08-20T16:59:31.270Z,101620.75
2022-08-20T17:02:08.359Z,101614.72
2022-08-20T17:04:59.193Z,101620.22
2022-08-20T17:07:51.274Z,101624.22
2022-08-20T17:10:21.433Z,101622.59
2022-08-20T17:13:20.055Z,101615.06
2022-08-20T17:16:02.416Z,101618.31
2022-08-20T17:18:39.546Z,101620.13
2022-08-20T17:21:17.690Z,101618.75
2022-08-20T17:24:09.128Z,101618.56
2022-08-20T17:26:55.864Z,101621.69
2022-08-20T17:29:29.318Z,101609.03
2022-08-20T17:32:16.833Z,101602.00
2022-08-20T17:34:51.779Z,101609.16
2022-08-20T17:37:49.897Z,101606.56
2022-08-20T17:40:31.677Z,101611.69
2022-08-20T17:43:06.203Z,101606.16
2022-08-20T17:45:45.078Z,101606.94
2022-08-20T17:48:41.386Z,101606.94
2022-08-20T17:51:22.171Z,101620.72
2022-08-20T17:54:11.173Z,101622.41
2022-08-20T17:56:42.659Z,101627.13
2022-08-20T18:00:00.342Z,101630.13
2022-08-20T18:02:13.915Z,101624.09
2022-08-20T18:04:41.315Z,101631.25
2022-08-20T18:07:11.208Z,101622.97
2022-08-20T18:09:57.370Z,101620.63
2022-08-20T18:13:04.491Z,101626.19
2022-08-20T18:15:47.162Z,101630.09
2022-08-20T18:18:37.675Z,101632.09
2022-08-20T18:21:53.601Z,101627.81
2022-08-20T18:24:33.723Z,101627.94
2022-08-20T18:27:11.727Z,101619.94
2022-08-20T18:29:44.367Z,101626.19
2022-08-20T18:32:38.524Z,101628.13
2022-08-20T18:35:23.938Z,101625.56
2022-08-20T18:37:51.031Z,101636.34
2022-08-20T18:40:33.105Z,101631.13
2022-08-20T18:43:15.246Z,101631.28
2022-08-20T18:45:42.982Z,101629.53
2022-08-20T18:48:24.820Z,101628.72
2022-08-20T18:50:57.020Z,101623.44
2022-08-20T18:53:34.205Z,101621.72
2022-08-20T18:56:16.461Z,101627.16
2022-08-20T18:59:03.812Z,101625.44
2022-08-20T19:01:34.798Z,101627.25
2022-08-20T19:04:03.096Z,101626.44
2022-08-20T19:06:36.239Z,101629.13
2022-08-20T19:09:26.506Z,101638.22
2022-08-20T19:12:34.442Z,101645.41
2022-08-20T19:15:17.410Z,101636.50
2022-08-20T19:18:10.556Z,101639.25
2022-08-20T19:20:56.410Z,101635.72
2022-08-20T19:23:27.354Z,101642.91
2022-08-20T19:26:02.810Z,101641.09
2022-08-20T19:28:42.680Z,101636.69
2022-08-20T19:31:24.629Z,101642.09
2022-08-20T19:34:21.733Z,101645.72
2022-08-20T19:37:27.961Z,101647.59
2022-08-20T19:40:00.854Z,101638.69
2022-08-20T19:42:32.276Z,101642.25
2022-08-20T19:45:04.690Z,101640.56
2022-08-20T19:47:49.808Z,101643.25
2022-08-20T19:50:40.462Z,101640.66
2022-08-20T19:53:31.097Z,101641.53
2022-08-20T19:56:21.597Z,101646.94
2022-08-20T19:59:09.036Z,101640.69
2022-08-20T20:01:36.461Z,101646.06
2022-08-20T20:04:08.064Z,101641.56
2022-08-20T20:06:45.578Z,101642.56
2022-08-20T20:09:24.909Z,101640.78
2022-08-20T20:12:02.823Z,101640.78
2022-08-20T20:14:33.839Z,101640.84
2022-08-20T20:17:04.284Z,101641.78
2022-08-20T20:19:31.454Z,101635.56
2022-08-20T20:22:20.074Z,101640.03
2022-08-20T20:25:18.218Z,101636.44
2022-08-20T20:27:57.177Z,101629.28
2022-08-20T20:30:32.491Z,101624.78
2022-08-20T20:33:13.251Z,101628.47
2022-08-20T20:35:40.320Z,101626.66
2022-08-20T20:38:15.125Z,101625.78
2022-08-20T20:40:44.939Z,101628.47
2022-08-20T20:43:23.345Z,101624.91
2022-08-20T20:46:17.716Z,101622.25
2022-08-20T20:48:55.432Z,101621.38
2022-08-20T20:51:33.404Z,101626.78
2022-08-20T20:54:07.046Z,101617.84
2022-08-20T20:56:38.365Z,101617.84
2022-08-20T20:59:08.177Z,101619.69
2022-08-20T21:01:48.200Z,101619.69
2022-08-20T21:04:15.607Z,101619.72
2022-08-20T21:06:42.621Z,101620.66
2022-08-20T21:09:09.667Z,101625.13
2022-08-20T21:11:36.675Z,101630.50
2022-08-20T21:14:03.826Z,101623.34
2022-08-20T21:16:30.894Z,101625.13
2022-08-20T21:18:58.451Z,101627.88
2022-08-20T21:21:25.602Z,101625.22
2022-08-20T21:23:52.608Z,101626.09
2022-08-20T21:26:19.615Z,101621.66
2022-08-20T21:28:46.723Z,101620.78
2022-08-20T21:31:13.719Z,101622.59
2022-08-20T21:33:40.787Z,101621.72
2022-08-20T21:36:08.013Z,101627.09
2022-08-20T21:38:36.045Z,101623.56
2022-08-20T21:41:03.418Z,101628.91
2022-08-20T21:43:32.843Z,101630.72
2022-08-20T21:46:01.458Z,101622.69
2022-08-20T21:48:29.437Z,101627.19
2022-08-20T21:50:56.517Z,101620.06
2022-08-20T21:53:23.597Z,101621.84
2022-08-20T21:55:50.940Z,101628.13
2022-08-20T21:58:19.503Z,101620.06
2022-08-20T22:00:59.622Z,101623.66
2022-08-20T22:03:38.490Z,101618.25
2022-08-20T22:06:09.117Z,101621.88
2022-08-20T22:08:36.409Z,101618.31
2022-08-20T22:11:05.366Z,101612.94
2022-08-20T22:13:33.957Z,101621.88
2022-08-20T22:16:04.645Z,101615.63
2022-08-20T22:18:32.173Z,101608.47
2022-08-20T22:20:59.668Z,101601.31
2022-08-20T22:23:27.086Z,101605.84
2022-08-20T22:25:54.559Z,101600.44
2022-08-20T22:28:21.816Z,101598.69
2022-08-20T22:30:49.957Z,101602.25
2022-08-20T22:33:22.435Z,101611.28
2022-08-20T22:35:53.896Z,101613.09
2022-08-20T22:38:22.511Z,101598.78
2022-08-20T22:40:50.081Z,101596.94
2022-08-20T22:43:17.873Z,101600.56
2022-08-20T22:45:47.359Z,101602.38
2022-08-20T22:48:18.328Z,101601.44
2022-08-20T22:50:45.676Z,101596.09
2022-08-20T22:53:14.179Z,101595.22
2022-08-20T22:55:41.252Z,101596.16
2022-08-20T22:58:09.039Z,101601.50
2022-08-20T23:00:38.593Z,101593.41
2022-08-20T23:03:07.165Z,101596.16
2022-08-20T23:05:36.958Z,101596.16
2022-08-20T23:08:07.002Z,101598.84
2022-08-20T23:10:36.306Z,101593.50
2022-08-20T23:13:04.230Z,101601.53
2022-08-20T23:15:36.261Z,101603.34
2022-08-20T23:18:19.717Z,101597.97
2022-08-20T23:20:54.210Z,101604.28
2022-08-20T23:23:21.302Z,101609.66
2022-08-20T23:25:48.771Z,101604.28
2022-08-20T23:28:20.498Z,101594.44
2022-08-20T23:30:48.231Z,101596.22
2022-08-20T23:33:15.607Z,101595.38
2022-08-20T23:35:44.127Z,101589.13
2022-08-20T23:38:11.888Z,101597.19
2022-08-20T23:40:39.153Z,101594.50
2022-08-20T23:43:06.532Z,101592.75
2022-08-20T23:45:34.129Z,101589.13
2022-08-20T23:48:03.156Z,101599.00
2022-08-20T23:50:30.948Z,101593.63
2022-08-20T23:52:58.826Z,101592.75
2022-08-20T23:55:26.615Z,101579.34
2022-08-20T23:57:54.274Z,101582.97
